Archival Weather

Aeroparque Jorge Newbery

Buenos Aires, Argentina (SABE)

Report from: Tuesday, September 19, 2023 5:00 PM -03
Current time: Saturday, July 13, 2024 10:49 PM -03

Current weather – Weather history – Daily summaries
Weather forecast

Temperature15.0°C (59.0°F)
Dew point11.0°C (51.8°F)
Winds 15 kts (7.7 m/s, 17.3 mph) East-Southeast (120°)
Visibility6.2 mi. (10 km)
Clouds Few clouds 2,200 ft. (671 m)
Scattered clouds 3,700 ft. (1,128 m)
Altimeter30.12 in.Hg (1020 mB)
Relative humidity77 %
Density altitude-43 ft. (-13 m)
Remarks Corrected report
No significant changes expected in the next two hours
Flight conditions Visual Meteorological Conditions
Raw dataCOR SABE 192000Z 12015KT 9999 FEW022 SCT037 15/11 Q1020 NOSIG RMK PP000
An error has occurred. This application may no longer respond until reloaded. Reload 🗙